Blue Ridge Highway — 3FEY4 — position and weather

sailwx.info

Track history (hours):
 
Tides and Currents Weather Stations Pressure Air Temp Water Temp Dewpoint Dewpoint Depression Visibility Wind Speed Wind Dir Waves Ship Positions

Blue Ridge Highway

Last reported at 2015-Jul-04 10:33 UTC. Time now 2015-Jul-06 09:14 UTC.
Position N 01°14' E 103°57'.

Length 180 m; draft 9 m.

Type: Cargo ship. MMSI: 355558000.

Date/timePositionNaut miles runAvg speedWind from/ knotsBaromVisibWave heightAir tempDewpointWater temp
2015-Jul-04 10:33N 01°14' E 103°57'10 9.8
2015-Jul-04 09:33N 01°14' E 103°47'4 4.0
2015-Jul-04 08:32N 01°17' E 103°45'0 0.0
2015-Jul-04 07:32N 01°17' E 103°45'0 0.0
2015-Jul-04 06:32N 01°17' E 103°45'0 0.0
2015-Jul-04 05:32N 01°17' E 103°45'0 0.0
2015-Jul-04 04:32N 01°17' E 103°45'0 0.0
2015-Jul-04 03:32N 01°17' E 103°45'0 0.0
2015-Jul-04 02:32N 01°17' E 103°45'0 0.0
2015-Jul-04 01:32N 01°17' E 103°45'0 0.0
2015-Jul-04 00:32N 01°17' E 103°45'0 0.4
2015-Jul-03 23:33N 01°17' E 103°45'4 3.7
2015-Jul-03 22:33N 01°14' E 103°47'6 5.7
2015-Jul-03 21:33N 01°15' E 103°53'0 0.3
2015-Jul-03 20:33N 01°15' E 103°53'0 0.1
2015-Jul-03 19:33N 01°15' E 103°53'0 0.0
2015-Jul-03 18:33N 01°15' E 103°53'0 0.0
2015-Jul-03 17:33N 01°15' E 103°53'0 0.0
2015-Jul-03 16:33N 01°15' E 103°53'0 0.1
2015-Jul-03 15:30N 01°15' E 103°53'0 0.0
2015-Jul-03 13:12N 01°15' E 103°53'0 0.0
2015-Jul-03 12:33N 01°15' E 103°53'0 0.0
2015-Jul-03 11:30N 01°15' E 103°53'0 0.0
2015-Jul-03 10:30N 01°15' E 103°53'0 0.0
2015-Jul-03 09:27N 01°15' E 103°53'0 0.0
2015-Jul-03 08:33N 01°15' E 103°53'0 0.0
2015-Jul-03 07:33N 01°15' E 103°53'0 0.0
2015-Jul-03 06:27N 01°15' E 103°53'0 0.0
2015-Jul-03 05:33N 01°15' E 103°53'0 0.0
2015-Jul-03 04:33N 01°15' E 103°53'0 0.1
2015-Jul-03 03:33N 01°15' E 103°53'0 0.0
2015-Jul-03 02:33N 01°15' E 103°53'0 0.0
2015-Jul-03 01:33N 01°15' E 103°53'0 0.0
2015-Jul-03 00:33N 01°15' E 103°53'0 0.0
2015-Jul-02 23:33N 01°15' E 103°53'0 0.0
2015-Jul-02 22:33N 01°15' E 103°53'0 0.0
2015-Jul-02 21:33N 01°15' E 103°53'0 0.0
2015-Jul-02 20:33N 01°15' E 103°53'0 0.1
2015-Jul-02 19:33N 01°15' E 103°53'3 3.1
2015-Jul-02 18:34N 01°12' E 103°53'1110.6
2015-Jul-02 17:31N 01°06' E 103°44'  
Track history (hours):
 
Tides and Currents Weather Stations Pressure Air Temp Water Temp Dewpoint Dewpoint Depression Visibility Wind Speed Wind Dir Waves Ship Positions

Blue Ridge Highway

Last reported at 2015-Jul-04 10:33 UTC. Time now 2015-Jul-06 09:14 UTC.
Position N 01°14' E 103°57'.

Length 180 m; draft 9 m.

Type: Cargo ship. MMSI: 355558000.

Date/timePositionNaut miles runAvg speedWind from/ knotsBaromVisibWave heightAir tempDewpointWater temp
2015-Jul-04 10:33N 01°14' E 103°57'10 9.8
2015-Jul-04 09:33N 01°14' E 103°47'4 4.0
2015-Jul-04 08:32N 01°17' E 103°45'0 0.0
2015-Jul-04 07:32N 01°17' E 103°45'0 0.0
2015-Jul-04 06:32N 01°17' E 103°45'0 0.0
2015-Jul-04 05:32N 01°17' E 103°45'0 0.0
2015-Jul-04 04:32N 01°17' E 103°45'0 0.0
2015-Jul-04 03:32N 01°17' E 103°45'0 0.0
2015-Jul-04 02:32N 01°17' E 103°45'0 0.0
2015-Jul-04 01:32N 01°17' E 103°45'0 0.0
2015-Jul-04 00:32N 01°17' E 103°45'0 0.4
2015-Jul-03 23:33N 01°17' E 103°45'4 3.7
2015-Jul-03 22:33N 01°14' E 103°47'6 5.7
2015-Jul-03 21:33N 01°15' E 103°53'0 0.3
2015-Jul-03 20:33N 01°15' E 103°53'0 0.1
2015-Jul-03 19:33N 01°15' E 103°53'0 0.0
2015-Jul-03 18:33N 01°15' E 103°53'0 0.0
2015-Jul-03 17:33N 01°15' E 103°53'0 0.0
2015-Jul-03 16:33N 01°15' E 103°53'0 0.1
2015-Jul-03 15:30N 01°15' E 103°53'0 0.0
2015-Jul-03 13:12N 01°15' E 103°53'0 0.0
2015-Jul-03 12:33N 01°15' E 103°53'0 0.0
2015-Jul-03 11:30N 01°15' E 103°53'0 0.0
2015-Jul-03 10:30N 01°15' E 103°53'0 0.0
2015-Jul-03 09:27N 01°15' E 103°53'0 0.0
2015-Jul-03 08:33N 01°15' E 103°53'0 0.0
2015-Jul-03 07:33N 01°15' E 103°53'0 0.0
2015-Jul-03 06:27N 01°15' E 103°53'0 0.0
2015-Jul-03 05:33N 01°15' E 103°53'0 0.0
2015-Jul-03 04:33N 01°15' E 103°53'0 0.1
2015-Jul-03 03:33N 01°15' E 103°53'0 0.0
2015-Jul-03 02:33N 01°15' E 103°53'0 0.0
2015-Jul-03 01:33N 01°15' E 103°53'0 0.0
2015-Jul-03 00:33N 01°15' E 103°53'0 0.0
2015-Jul-02 23:33N 01°15' E 103°53'0 0.0
2015-Jul-02 22:33N 01°15' E 103°53'0 0.0
2015-Jul-02 21:33N 01°15' E 103°53'0 0.0
2015-Jul-02 20:33N 01°15' E 103°53'0 0.1
2015-Jul-02 19:33N 01°15' E 103°53'3 3.1
2015-Jul-02 18:34N 01°12' E 103°53'1110.6
2015-Jul-02 17:31N 01°06' E 103°44'  

Dump ship's entire track history